• Join FlightAware (Why Join?)
  • Login
  • US Flag 
03:43AM EST


 

Airport Tracker/Info


-or-


 

Live Flight TrackerFlight Track Log ✈ N777NC ✈ 11-Jul-2013 ✈ KATL - KCLE

Flight Track Log - Related Links

Times and Time Zones

All times are in EDT time to prevent confusion due to time zone crossing. See the N777NC flight status page for this flight to view local times or setup timezone preferences in your user account.

Time Position Orientation Groundspeed Altitude Reporting Facility
EDT Latitude Longitude Course Direction KTS MPH feet Rate Location/Type
02:47PM 33.6722 -84.5381 12° North 449 517 3,800  Level Atlanta Center
02:48PM 33.7333 -84.6000 320° Northwest 282 325 6,400 2,400 Climbing Atlanta TRACON
02:49PM 33.8000 -84.6167 348° North 288 331 8,600 1,980 Climbing Atlanta TRACON
02:50PM 34.1323 -84.3097 North  Level FlightAware Approximate
02:51PM 34.2572 -84.2852 12° North  Level FlightAware Approximate
02:51PM 33.9414 -84.5344 26° Northeast 304 350 12,200  Level Atlanta Center
02:52PM 34.3811 -84.2532 12° North  Level FlightAware Approximate
02:52PM 34.0169 -84.4622 38° Northeast 328 377 13,600  Level Atlanta Center
02:53PM 34.5051 -84.2210 12° North  Level FlightAware Approximate
02:53PM 34.0900 -84.3925 38° Northeast 334 384 15,900  Level Atlanta Center
02:54PM 34.1781 -84.3175 35° Northeast 365 420 17,300 1,320 Climbing Atlanta Center
02:55PM 34.2803 -84.2550 27° Northeast 374 430 18,600 1,320 Climbing Atlanta Center
02:56PM 34.3911 -84.2478 North 374 430 20,000 1,320 Climbing Atlanta Center
02:57PM 34.5017 -84.2353 North 393 452 21,300 1,260 Climbing Atlanta Center
02:58PM 34.6186 -84.2156 North 407 468 22,600 1,140 Climbing Atlanta Center
02:59PM 34.7186 -84.1928 11° North 416 479 23,600 1,020 Climbing Atlanta Center
03:00PM 34.8356 -84.1525 16° North 416 479 24,700 900 Climbing Atlanta Center
03:01PM 34.9547 -84.1172 14° North 416 479 25,400 840 Climbing Atlanta Center
03:02PM 35.0756 -84.0894 11° North 429 494 26,400 900 Climbing Atlanta Center
03:03PM 35.1967 -84.0642 10° North 434 499 27,200 720 Climbing Atlanta Center
03:04PM 35.3178 -84.0336 12° North 434 499 27,900 720 Climbing Atlanta Center
03:05PM 35.4408 -84.0056 11° North 439 505 28,700 540 Climbing Atlanta Center
03:06PM 35.5681 -83.9825 North 450 518 29,000 120 Climbing Atlanta Center
03:07PM 35.6953 -83.9544 10° North 456 525 29,000  Level Atlanta Center
03:08PM 35.8225 -83.9183 13° North 466 536 29,000  Level Atlanta Center
03:09PM 35.9456 -83.8592 21° North 471 542 29,000  Level Atlanta Center
03:10PM 36.0683 -83.7844 26° Northeast 478 550 29,000  Level Atlanta Center
03:11PM 36.1669 -83.7322 23° Northeast 480 552 29,000  Level Indianapolis Center
03:12PM 36.3106 -83.6431 27° Northeast 482 555 29,000  Level Indianapolis Center
03:13PM 36.4278 -83.5586 30° Northeast 489 563 29,000  Level Indianapolis Center
03:14PM 36.5472 -83.4775 29° Northeast 494 568 29,000  Level Indianapolis Center
03:15PM 36.6661 -83.3919 30° Northeast 490 564 29,000  Level Indianapolis Center
03:16PM 36.7842 -83.3011 32° Northeast 494 568 29,000  Level Indianapolis Center
03:17PM 36.9275 -83.2050 28° Northeast 495 570 29,000  Level Indianapolis Center
03:18PM 37.0494 -83.1158 30° Northeast 496 571 29,000  Level Indianapolis Center
03:19PM 37.1742 -83.0375 27° Northeast 494 568 29,000  Level Indianapolis Center
03:20PM 37.2978 -82.9586 27° Northeast 492 566 29,000  Level Indianapolis Center
03:22PM 37.4231 -82.8819 26° Northeast 489 563 29,000  Level Indianapolis Center
03:23PM 37.5503 -82.8092 24° Northeast 496 571 29,000  Level Indianapolis Center
03:24PM 37.6775 -82.7364 24° Northeast 498 573 29,000  Level Indianapolis Center
03:25PM 37.8261 -82.6536 24° Northeast 499 574 29,000  Level Indianapolis Center
03:26PM 37.9553 -82.5897 21° North 495 570 29,000  Level Indianapolis Center
03:27PM 38.0900 -82.5422 16° North 500 575 29,000  Level Indianapolis Center
03:28PM 38.2236 -82.4994 14° North 495 570 29,000  Level Indianapolis Center
03:29PM 38.3694 -82.4536 14° North 501 577 29,000  Level Indianapolis Center
03:30PM 38.5072 -82.4219 10° North 498 573 29,000  Level Indianapolis Center
03:31PM 38.6461 -82.3939 North 500 575 29,000  Level Indianapolis Center
03:32PM 38.7850 -82.3781 North 497 572 29,000  Level Indianapolis Center
03:33PM 38.9244 -82.3672 North 497 572 29,000  Level Indianapolis Center
03:34PM 39.0642 -82.3444 North 500 575 29,000  Level Indianapolis Center
03:35PM 39.2342 -82.3217 North 508 585 29,000  Level Indianapolis Center
03:36PM 39.3733 -82.3183 North 501 577 29,000 -60 Level Indianapolis Center
03:37PM 39.5008 -82.3072 North 498 573 28,900 -60 Descending Indianapolis Center
03:38PM 39.6619 -82.2725 North 502 578 28,900 -420 Level Indianapolis Center
03:39PM 39.7994 -82.2506 North 493 567 28,100 -2,280 Descending Indianapolis Center
03:40PM 39.9314 -82.2303 North 477 549 24,200 -3,120 Descending Indianapolis Center
03:41PM 40.0594 -82.2061 North 462 532 21,700 -2,340 Descending Indianapolis Center
03:42PM 40.1783 -82.1875 North 430 495 19,400 -1,980 Descending Indianapolis Center
03:43PM 40.2847 -82.1619 10° North 400 460 17,700 -1,800 Descending Indianapolis Center
03:44PM 40.4014 -82.1256 13° North 366 421 15,700 -1,380 Descending Indianapolis Center
03:45PM 40.4975 -82.0944 14° North 354 407 14,900 -360 Descending Indianapolis Center
03:46PM 40.5825 -82.0139 36° Northeast 371 427 15,000 60 Climbing Indianapolis Center
03:47PM 40.6258 -81.9700 38° Northeast 363 418 15,000 -600 Level Cleveland Center
03:48PM 40.7103 -81.8786 39° Northeast 382 440 14,100 -1,200 Descending Cleveland Center
03:48PM 40.7567 -81.8303 38° Northeast 382 440 13,200 -1,800 Descending Cleveland Center
03:49PM 40.8428 -81.7550 33° Northeast 361 415 11,400 -1,500 Descending Cleveland Center
03:50PM 40.9322 -81.7731 351° North 333 383 10,200 -720 Descending Cleveland Center
03:51PM 41.0064 -81.8597 319° Northwest 323 372 10,000 -120 Descending Cleveland Center
03:52PM 41.0722 -81.9356 319° Northwest 319 367 10,000 -600 Level Cleveland Center
03:53PM 41.1342 -81.9975 323° Northwest 269 310 8,800 -1,440 Descending Cleveland Center
03:54PM 41.1981 -82.0483 329° Northwest 271 312 7,100 -1,620 Descending Cleveland Center
03:56PM 41.2692 -82.0364 North 265 305 5,600 -1,500 Descending Cleveland Center
03:57PM 41.3217 -81.9933 32° Northeast 212 244 4,100 -1,500 Descending Cleveland Center